createdAt,value
2018-09-25T00:03:40.676Z,1.87
2018-09-25T00:09:04.416Z,2.10
2018-09-25T00:14:28.143Z,2.22
2018-09-25T00:19:52.044Z,1.90
2018-09-25T00:25:16.723Z,2.13
2018-09-25T00:30:40.551Z,2.10
2018-09-25T00:36:04.377Z,1.73
2018-09-25T00:41:27.955Z,2.07
2018-09-25T00:46:51.779Z,1.70
2018-09-25T00:52:15.542Z,1.50
2018-09-25T00:57:39.181Z,2.47
2018-09-25T01:03:02.969Z,2.30
2018-09-25T01:08:26.791Z,2.33
2018-09-25T01:13:50.561Z,2.30
2018-09-25T01:19:14.346Z,2.05
2018-09-25T01:24:38.198Z,2.10
2018-09-25T01:30:01.883Z,1.80
2018-09-25T01:35:25.854Z,1.83
2018-09-25T01:40:49.599Z,1.82
2018-09-25T01:46:13.450Z,2.00
2018-09-25T01:51:37.248Z,1.90
2018-09-25T01:57:01.109Z,1.90
2018-09-25T02:02:24.820Z,1.97
2018-09-25T02:07:48.570Z,2.00
2018-09-25T02:13:12.266Z,2.07
2018-09-25T02:18:36.102Z,1.93
2018-09-25T02:24:00.048Z,2.03
2018-09-25T02:29:23.822Z,2.23
2018-09-25T02:34:47.583Z,2.30
2018-09-25T02:40:11.585Z,2.30
2018-09-25T02:45:35.436Z,2.50
2018-09-25T02:50:59.102Z,2.30
2018-09-25T02:56:22.888Z,2.37
2018-09-25T03:01:46.721Z,2.40
2018-09-25T03:07:10.605Z,2.87
2018-09-25T03:12:34.304Z,2.70
2018-09-25T03:17:58.037Z,3.43
2018-09-25T03:23:21.742Z,3.53
2018-09-25T03:28:45.684Z,3.83
2018-09-25T03:34:09.523Z,3.43
2018-09-25T03:39:33.395Z,3.30
2018-09-25T03:44:57.141Z,3.23
2018-09-25T03:50:21.020Z,3.47
2018-09-25T03:55:44.980Z,4.27
2018-09-25T04:01:09.166Z,3.43
2018-09-25T04:06:33.272Z,4.50
2018-09-25T04:11:57.284Z,4.93
2018-09-25T04:17:21.253Z,4.47
2018-09-25T04:22:45.232Z,4.40
2018-09-25T04:28:09.033Z,4.23
2018-09-25T04:33:33.131Z,5.10
2018-09-25T04:38:57.106Z,5.10
2018-09-25T04:44:21.093Z,6.13
2018-09-25T04:49:45.878Z,5.77
2018-09-25T04:55:10.023Z,5.33
2018-09-25T05:00:36.559Z,5.83
2018-09-25T05:06:00.526Z,6.90
2018-09-25T05:11:24.470Z,6.87
2018-09-25T05:16:48.418Z,6.50
2018-09-25T05:22:12.254Z,8.10
2018-09-25T05:27:35.904Z,7.27
2018-09-25T05:32:59.746Z,6.47
2018-09-25T05:38:23.922Z,8.00
2018-09-25T05:43:49.319Z,7.30
2018-09-25T05:49:13.412Z,7.63
2018-09-25T05:54:37.419Z,6.87
2018-09-25T06:00:01.402Z,8.57
2018-09-25T06:05:25.368Z,8.87
2018-09-25T06:10:49.172Z,9.78
2018-09-25T06:16:13.292Z,10.93
2018-09-25T06:21:36.973Z,8.00
2018-09-25T06:27:08.552Z,7.70
2018-09-25T06:32:32.443Z,8.00
2018-09-25T06:37:56.311Z,7.27
2018-09-25T06:43:20.085Z,10.20
2018-09-25T06:48:43.791Z,10.70
2018-09-25T06:54:07.725Z,9.90
2018-09-25T06:59:31.672Z,7.77
2018-09-25T07:04:55.459Z,13.43
2018-09-25T07:10:19.353Z,11.50
2018-09-25T07:15:43.052Z,10.38
2018-09-25T07:21:06.836Z,11.13
2018-09-25T07:26:30.874Z,12.77
2018-09-25T07:31:54.912Z,10.80
2018-09-25T07:37:18.778Z,12.67
2018-09-25T07:42:42.602Z,11.17
2018-09-25T07:48:06.337Z,13.85
2018-09-25T07:53:30.105Z,13.77
2018-09-25T07:58:54.080Z,12.43
2018-09-25T08:04:17.727Z,11.43
2018-09-25T08:09:41.620Z,12.97
2018-09-25T08:15:05.642Z,13.00
2018-09-25T08:20:29.569Z,12.50
2018-09-25T08:25:53.566Z,10.47
2018-09-25T08:31:17.402Z,10.23
2018-09-25T08:36:41.365Z,9.60
2018-09-25T08:42:05.183Z,7.33
2018-09-25T08:47:29.332Z,3.20
2018-09-25T08:52:53.398Z,3.60
2018-09-25T08:58:17.691Z,3.47
2018-09-25T09:03:41.878Z,3.10
2018-09-25T09:09:05.753Z,3.07
2018-09-25T09:14:29.859Z,2.40
2018-09-25T09:19:53.851Z,2.03
2018-09-25T09:25:17.731Z,1.92
2018-09-25T09:30:41.714Z,1.87
2018-09-25T09:36:05.718Z,1.73
2018-09-25T09:41:29.602Z,1.73
2018-09-25T09:46:53.459Z,1.43
2018-09-25T09:52:17.255Z,2.70
2018-09-25T09:57:41.059Z,1.90
2018-09-25T10:03:05.051Z,1.50
2018-09-25T10:08:29.727Z,1.47
2018-09-25T10:13:53.674Z,1.63
2018-09-25T10:19:17.475Z,1.93
2018-09-25T10:24:41.510Z,1.93
2018-09-25T10:30:05.565Z,2.00
2018-09-25T10:35:29.390Z,1.50
2018-09-25T10:40:53.393Z,1.77
2018-09-25T10:46:17.146Z,1.72
2018-09-25T10:51:41.149Z,1.93
2018-09-25T10:57:04.895Z,1.90
2018-09-25T11:02:28.660Z,1.60
2018-09-25T11:07:52.524Z,1.70
2018-09-25T11:13:16.393Z,1.33
2018-09-25T11:18:40.243Z,1.30
2018-09-25T11:24:04.314Z,2.30
2018-09-25T11:29:28.159Z,1.60
2018-09-25T11:34:51.983Z,1.40
2018-09-25T11:40:15.785Z,1.85
2018-09-25T11:45:39.494Z,1.50
2018-09-25T11:51:03.385Z,1.60
2018-09-25T11:56:27.273Z,1.10
2018-09-25T12:01:51.048Z,1.40
2018-09-25T12:07:14.901Z,1.80
2018-09-25T12:12:38.703Z,2.00
2018-09-25T12:18:02.374Z,2.03
2018-09-25T12:23:26.178Z,1.90
2018-09-25T12:28:49.894Z,1.40
2018-09-25T12:34:13.590Z,1.40
2018-09-25T12:39:37.448Z,1.30
2018-09-25T12:45:01.240Z,1.10
2018-09-25T12:50:25.212Z,1.37
2018-09-25T12:55:48.901Z,1.70
2018-09-25T13:01:12.859Z,1.47
2018-09-25T13:06:36.576Z,1.53
2018-09-25T13:12:00.440Z,1.90
2018-09-25T13:17:24.187Z,2.00
2018-09-25T13:22:48.027Z,1.77
2018-09-25T13:28:11.781Z,2.10
2018-09-25T13:33:35.557Z,4.97
2018-09-25T13:38:59.287Z,2.27
2018-09-25T13:44:23.144Z,2.43
2018-09-25T13:49:46.772Z,2.10
2018-09-25T13:55:11.182Z,1.67
2018-09-25T14:00:34.856Z,1.60
2018-09-25T14:05:58.677Z,1.63
2018-09-25T14:11:22.511Z,1.70
2018-09-25T14:16:46.384Z,1.87
2018-09-25T14:22:10.176Z,1.80
2018-09-25T14:27:33.988Z,1.70
2018-09-25T14:32:57.926Z,1.87
2018-09-25T14:38:21.674Z,1.40
2018-09-25T14:43:45.412Z,1.40
2018-09-25T14:49:09.296Z,1.80
2018-09-25T14:54:33.135Z,1.40
2018-09-25T14:59:56.844Z,1.60
2018-09-25T15:05:20.578Z,1.40
2018-09-25T15:10:44.424Z,1.53
2018-09-25T15:16:08.157Z,1.40
2018-09-25T15:21:32.058Z,2.00
2018-09-25T15:26:55.783Z,1.33
2018-09-25T15:32:19.578Z,1.37
2018-09-25T15:37:43.306Z,1.65
2018-09-25T15:43:07.068Z,1.40
2018-09-25T15:48:30.935Z,1.77
2018-09-25T15:53:54.613Z,1.40
2018-09-25T15:59:18.419Z,2.00
2018-09-25T16:04:42.161Z,1.70
2018-09-25T16:10:05.837Z,1.60
2018-09-25T16:15:29.633Z,1.23
2018-09-25T16:20:53.371Z,1.60
2018-09-25T16:26:17.068Z,1.70
2018-09-25T16:31:40.791Z,1.70
2018-09-25T16:37:04.692Z,1.40
2018-09-25T16:42:28.408Z,1.67
2018-09-25T16:47:52.279Z,1.20
2018-09-25T16:53:15.972Z,1.23
2018-09-25T16:58:39.835Z,1.70
2018-09-25T17:04:03.660Z,1.30
2018-09-25T17:09:27.247Z,1.87
2018-09-25T17:14:50.936Z,1.37
2018-09-25T17:20:14.780Z,1.30
2018-09-25T17:25:38.646Z,1.40
2018-09-25T17:31:02.383Z,1.73
2018-09-25T17:36:26.116Z,1.63
2018-09-25T17:41:49.927Z,2.37
2018-09-25T17:47:13.618Z,1.87
2018-09-25T17:52:37.384Z,2.60
2018-09-25T17:58:01.226Z,2.47
2018-09-25T18:03:25.026Z,1.77
2018-09-25T18:08:48.967Z,2.50
2018-09-25T18:14:13.055Z,2.97
2018-09-25T18:19:36.812Z,2.60
2018-09-25T18:25:00.487Z,2.87
2018-09-25T18:30:24.240Z,3.00
2018-09-25T18:35:48.012Z,2.17
2018-09-25T18:41:11.773Z,2.10
2018-09-25T18:46:35.596Z,2.10
2018-09-25T18:51:59.449Z,2.50
2018-09-25T18:57:23.498Z,1.60
2018-09-25T19:02:47.183Z,2.20
2018-09-25T19:08:10.778Z,2.30
2018-09-25T19:13:34.436Z,3.87
2018-09-25T19:18:58.313Z,3.10
2018-09-25T19:24:21.948Z,2.27
2018-09-25T19:29:45.669Z,2.70
2018-09-25T19:35:09.615Z,2.53
2018-09-25T19:40:33.692Z,2.43
2018-09-25T19:45:57.542Z,2.57
2018-09-25T19:51:21.197Z,2.13
2018-09-25T19:56:45.052Z,2.10
2018-09-25T20:02:08.763Z,2.60
2018-09-25T20:07:32.537Z,5.83
2018-09-25T20:12:56.580Z,2.50
2018-09-25T20:18:20.249Z,3.03
2018-09-25T20:23:43.973Z,2.40
2018-09-25T20:29:07.825Z,3.10
2018-09-25T20:34:31.711Z,2.90
2018-09-25T20:39:56.499Z,2.97
2018-09-25T20:45:20.183Z,2.77
2018-09-25T20:50:44.310Z,2.27
2018-09-25T20:56:08.017Z,2.57
2018-09-25T21:01:31.873Z,2.87
2018-09-25T21:06:55.671Z,3.73
2018-09-25T21:12:19.304Z,3.30
2018-09-25T21:17:43.133Z,3.57
2018-09-25T21:23:08.740Z,3.30
2018-09-25T21:28:32.657Z,11.97
2018-09-25T21:33:56.315Z,7.75
2018-09-25T21:39:19.915Z,6.27
2018-09-25T21:44:43.607Z,3.90
2018-09-25T21:50:07.437Z,3.17
2018-09-25T21:55:31.081Z,3.00
2018-09-25T22:00:54.800Z,3.50
2018-09-25T22:06:18.655Z,3.87
2018-09-25T22:11:42.485Z,3.63
2018-09-25T22:17:06.298Z,3.53
2018-09-25T22:22:29.944Z,3.50
2018-09-25T22:27:53.644Z,3.10
2018-09-25T22:33:17.275Z,3.00
2018-09-25T22:38:41.063Z,3.50
2018-09-25T22:44:04.909Z,3.57
2018-09-25T22:49:28.745Z,2.90
2018-09-25T22:54:52.654Z,2.87
2018-09-25T23:00:16.285Z,2.83
2018-09-25T23:05:40.039Z,2.67
2018-09-25T23:11:03.722Z,2.30
2018-09-25T23:16:27.390Z,3.00
2018-09-25T23:21:51.105Z,7.45
2018-09-25T23:27:14.820Z,14.17
2018-09-25T23:32:38.709Z,5.47
2018-09-25T23:38:02.574Z,3.83
2018-09-25T23:43:34.307Z,3.83
2018-09-25T23:48:57.986Z,3.40
2018-09-25T23:54:25.202Z,3.70
2018-09-25T23:59:55.808Z,3.30
